METAR
Output Produced by Metar
found at http://aviationweather.gov/adds/metars/
 

Data at: 0536 UTC 06 Jul 2020

METAR for:WIII (Jakarta Intl, --, ID)
Text:WIII 060530Z 07011KT 9999 FEW020 33/23 Q1008 NOSIG
Temperature: 33.0°C ( 91°F)
Dewpoint: 23.0°C ( 73°F) [RH = 56%]
Pressure (altimeter):29.76 inches Hg (1008.0 mb)
Winds:from the ENE (70 degrees) at 13 MPH (11 knots; 5.7 m/s)
Visibility:6 or more sm (10+ km)
Ceiling:at least 12,000 feet AGL
Clouds: few clouds at 2000 feet AGL